Time;durP1;ratioP1;P1;durP2;ratioP2;P2;SDS_P1;SDS_P2;PMS_P1;PMS_P2;Temp;Humidity;BMP_temperature;BMP_pressure;BME280_temperature;BME280_humidity;BME280_pressure;Samples;Min_cycle;Max_cycle;Signal;HPM_P1;HPM_P2
2022/06/02 00:01:38;;;;;;;8.32;7.72;;;11.90;72.40;;;;;;5091432;28;20491;-69
2022/06/02 00:04:12;;;;;;;9.20;8.40;;;11.80;72.60;;;;;;5081538;28;20434;-68
2022/06/02 00:06:46;;;;;;;8.95;8.25;;;11.90;72.80;;;;;;5089489;28;20434;-68
2022/06/02 00:09:26;;;;;;;8.80;8.10;;;11.80;72.70;;;;;;5090438;28;20441;-67
2022/06/02 00:12:04;;;;;;;8.20;7.50;;;11.80;73.30;;;;;;5084297;28;20486;-68
2022/06/02 00:14:40;;;;;;;9.00;8.30;;;11.70;73.30;;;;;;5091110;28;20491;-68
2022/06/02 00:17:16;;;;;;;9.15;8.45;;;11.70;73.90;;;;;;5083124;28;20986;-68
2022/06/02 00:19:49;;;;;;;9.43;8.52;;;11.60;73.70;;;;;;5081525;28;20419;-69
2022/06/02 00:22:23;;;;;;;9.30;8.60;;;11.60;74.00;;;;;;5091306;28;20410;-68
2022/06/02 00:24:57;;;;;;;9.60;8.80;;;11.50;74.40;;;;;;5082673;28;20846;-67
2022/06/02 00:27:31;;;;;;;10.85;8.60;;;11.40;74.30;;;;;;5082609;28;20467;-67
2022/06/02 00:30:06;;;;;;;8.82;8.13;;;11.40;74.60;;;;;;5071708;28;20415;-67
2022/06/02 00:32:44;;;;;;;9.23;8.43;;;11.40;75.40;;;;;;5070728;28;20412;-68
2022/06/02 00:35:23;;;;;;;9.02;8.20;;;11.30;75.00;;;;;;5077242;28;20453;-68
2022/06/02 00:37:56;;;;;;;9.55;8.60;;;11.30;75.60;;;;;;5085039;28;20425;-67
2022/06/02 00:40:24;;;;;;;9.20;8.50;;;11.30;75.60;;;;;;5082324;28;20798;-67
2022/06/02 00:43:02;;;;;;;9.50;8.50;;;11.20;75.60;;;;;;5078937;28;20434;-67
2022/06/02 00:45:29;;;;;;;10.18;9.38;;;11.30;75.80;;;;;;5080702;28;20484;-66
2022/06/02 00:48:12;;;;;;;9.60;8.80;;;11.20;76.30;;;;;;5054192;28;20434;-67
2022/06/02 00:50:49;;;;;;;9.55;8.85;;;11.20;76.00;;;;;;5081740;28;20479;-69
2022/06/02 00:53:28;;;;;;;9.60;8.70;;;11.10;76.40;;;;;;5062357;28;20424;-68
2022/06/02 00:59:05;;;;;;;9.60;8.90;;;11.10;76.70;;;;;;5053361;28;20428;-68
2022/06/02 01:01:34;;;;;;;10.20;9.40;;;11.10;76.90;;;;;;5077314;28;20531;-67
2022/06/02 01:04:04;;;;;;;10.38;9.57;;;11.10;77.30;;;;;;5078536;28;20419;-67
2022/06/02 01:06:46;;;;;;;9.82;9.00;;;11.00;77.50;;;;;;5070194;28;20419;-67
2022/06/02 01:09:50;;;;;;;10.90;10.00;;;11.00;77.40;;;;;;5077203;28;20431;-67
2022/06/02 01:12:40;;;;;;;10.93;10.02;;;11.00;77.50;;;;;;5032100;28;20858;-67
2022/06/02 01:15:22;;;;;;;10.93;10.02;;;11.00;78.30;;;;;;5072370;28;20435;-66
2022/06/02 01:17:58;;;;;;;10.60;9.77;;;10.90;77.90;;;;;;5089665;28;20413;-66
2022/06/02 01:20:35;;;;;;;11.00;10.10;;;10.90;78.10;;;;;;5069498;28;20842;-66
2022/06/02 01:23:51;;;;;;;11.57;10.68;;;10.90;78.20;;;;;;5084902;28;20538;-68
2022/06/02 01:26:54;;;;;;;12.35;11.35;;;10.80;79.00;;;;;;4990704;28;20423;-67
2022/06/02 01:29:56;;;;;;;11.02;10.05;;;10.80;79.10;;;;;;5069849;28;20767;-67
2022/06/02 01:32:31;;;;;;;12.00;10.90;;;10.70;79.00;;;;;;5068286;28;20412;-66
2022/06/02 01:35:09;;;;;;;11.82;10.80;;;10.70;79.10;;;;;;5067663;28;20431;-67
2022/06/02 01:37:41;;;;;;;12.27;11.27;;;10.70;79.20;;;;;;5087168;28;20872;-67
2022/06/02 01:40:21;;;;;;;11.70;10.70;;;10.60;79.40;;;;;;5077068;28;20975;-67
2022/06/02 01:42:56;;;;;;;12.48;11.48;;;10.50;79.60;;;;;;5089212;28;20421;-66
2022/06/02 01:45:43;;;;;;;12.15;11.15;;;10.50;80.00;;;;;;5090075;28;20417;-67
2022/06/02 01:48:21;;;;;;;11.77;10.77;;;10.50;80.20;;;;;;5070784;28;20436;-67
2022/06/02 01:50:59;;;;;;;11.82;10.73;;;10.50;80.30;;;;;;5065072;28;20420;-67
2022/06/02 01:53:37;;;;;;;11.23;10.33;;;10.40;80.50;;;;;;5066328;28;20424;-67
2022/06/02 01:56:17;;;;;;;11.48;10.30;;;10.50;80.70;;;;;;5062172;28;20759;-68
2022/06/02 01:58:58;;;;;;;11.90;10.90;;;10.40;80.80;;;;;;5069970;28;20833;-66
2022/06/02 02:01:36;;;;;;;12.00;10.80;;;10.40;80.80;;;;;;5062556;28;20427;-67
2022/06/02 02:04:20;;;;;;;12.07;11.18;;;10.40;81.20;;;;;;5070784;28;20435;-66
2022/06/02 02:06:56;;;;;;;12.50;11.50;;;10.40;80.80;;;;;;5070135;28;20407;-67
2022/06/02 02:09:31;;;;;;;11.90;10.90;;;10.30;81.00;;;;;;5067045;28;20920;-66
2022/06/02 02:12:01;;;;;;;11.77;10.88;;;10.30;81.40;;;;;;5073149;28;20462;-66
2022/06/02 02:15:02;;;;;;;12.80;11.70;;;10.30;81.50;;;;;;5087115;28;20471;-69
2022/06/02 02:17:44;;;;;;;12.38;11.27;;;10.30;81.80;;;;;;5074095;28;20426;-68
2022/06/02 02:20:22;;;;;;;11.38;10.48;;;10.20;81.80;;;;;;5048683;28;20440;-68
2022/06/02 02:22:55;;;;;;;11.75;10.75;;;10.20;82.10;;;;;;5049069;28;20606;-69
2022/06/02 02:25:29;;;;;;;11.32;10.32;;;10.10;82.20;;;;;;5061079;28;20844;-67
2022/06/02 02:28:05;;;;;;;11.27;10.37;;;10.10;82.20;;;;;;5064472;28;20987;-68
2022/06/02 02:30:41;;;;;;;11.82;10.82;;;10.10;82.30;;;;;;5088675;28;20458;-67
2022/06/02 02:33:18;;;;;;;11.50;10.38;;;10.10;82.70;;;;;;5079983;28;20925;-67
2022/06/02 02:35:55;;;;;;;11.05;10.05;;;10.00;82.70;;;;;;5076424;28;20407;-66
2022/06/02 02:38:32;;;;;;;11.30;10.27;;;10.00;83.00;;;;;;5067154;28;20476;-67
2022/06/02 02:41:03;;;;;;;11.27;10.30;;;9.90;83.10;;;;;;5062689;28;20538;-67
2022/06/02 02:43:38;;;;;;;10.85;10.05;;;9.90;83.40;;;;;;5084797;28;20491;-67
2022/06/02 02:46:10;;;;;;;11.47;10.37;;;9.90;83.50;;;;;;5088496;28;20576;-67
2022/06/02 02:48:44;;;;;;;10.60;9.70;;;9.90;83.60;;;;;;5071421;28;20423;-67
2022/06/02 02:51:16;;;;;;;11.20;10.20;;;9.80;83.60;;;;;;5094492;23;20429;-66
2022/06/02 02:53:48;;;;;;;11.00;10.10;;;9.80;83.80;;;;;;5081029;28;20425;-66
2022/06/02 02:56:19;;;;;;;10.90;9.90;;;9.70;84.10;;;;;;5077052;28;20882;-66
2022/06/02 02:59:02;;;;;;;11.90;10.90;;;9.70;84.10;;;;;;5064465;28;20494;-66
2022/06/02 03:01:41;;;;;;;11.87;10.77;;;9.70;84.50;;;;;;5049196;28;20503;-66
2022/06/02 03:04:28;;;;;;;10.90;10.00;;;9.70;84.30;;;;;;5044014;28;20417;-66
2022/06/02 03:06:56;;;;;;;12.13;11.10;;;9.70;84.30;;;;;;5046727;28;20506;-67
2022/06/02 03:09:28;;;;;;;12.73;11.52;;;9.70;84.50;;;;;;5059939;28;20813;-67
2022/06/02 03:12:05;;;;;;;12.13;11.13;;;9.70;84.50;;;;;;5044793;28;20421;-66
2022/06/02 03:15:02;;;;;;;12.20;11.10;;;9.70;84.70;;;;;;5043624;28;20409;-66
2022/06/02 03:17:41;;;;;;;11.82;10.68;;;9.60;84.80;;;;;;5044101;28;20424;-66
2022/06/02 03:20:16;;;;;;;11.70;10.70;;;9.60;85.10;;;;;;5054876;28;20435;-65
2022/06/02 03:23:00;;;;;;;12.50;11.40;;;9.60;85.10;;;;;;5064449;28;20492;-66
2022/06/02 03:25:34;;;;;;;11.73;10.63;;;9.60;85.20;;;;;;5069440;28;20901;-66
2022/06/02 03:28:16;;;;;;;12.05;10.85;;;9.60;85.00;;;;;;5073107;28;20423;-69
2022/06/02 03:30:48;;;;;;;13.05;11.85;;;9.60;85.10;;;;;;5072797;28;20473;-68
2022/06/02 03:33:30;;;;;;;12.00;11.00;;;9.60;85.20;;;;;;5068991;28;20427;-66
2022/06/02 03:36:08;;;;;;;11.90;10.90;;;9.60;85.20;;;;;;5056507;28;20533;-66
2022/06/02 03:38:53;;;;;;;12.65;11.45;;;9.60;85.20;;;;;;5060884;28;20862;-66
2022/06/02 03:41:35;;;;;;;12.90;11.70;;;9.60;85.20;;;;;;5072012;28;20809;-66
2022/06/02 03:44:14;;;;;;;13.40;12.10;;;9.60;85.20;;;;;;5071330;28;20427;-65
2022/06/02 03:46:53;;;;;;;12.80;11.70;;;9.60;85.30;;;;;;5062587;28;20475;-68
2022/06/02 03:49:48;;;;;;;13.30;12.20;;;9.50;85.60;;;;;;5067042;28;20862;-64
2022/06/02 03:52:28;;;;;;;14.00;12.70;;;9.50;85.40;;;;;;5075414;28;20427;-65
2022/06/02 03:55:09;;;;;;;14.10;12.90;;;9.50;85.80;;;;;;5056265;28;20420;-68
2022/06/02 03:57:48;;;;;;;12.52;11.52;;;9.50;85.80;;;;;;5053022;28;20432;-67
2022/06/02 04:00:22;;;;;;;14.35;13.00;;;9.50;86.00;;;;;;5050734;28;20490;-67
2022/06/02 04:02:53;;;;;;;13.30;12.10;;;9.50;86.00;;;;;;5058236;28;20437;-67
2022/06/02 04:05:42;;;;;;;13.20;12.10;;;9.60;85.90;;;;;;5062163;28;20439;-66
2022/06/02 04:08:26;;;;;;;13.20;12.18;;;9.60;85.60;;;;;;5060562;28;20939;-68
2022/06/02 04:11:06;;;;;;;12.85;11.75;;;9.60;85.50;;;;;;5069512;28;20492;-67
2022/06/02 04:13:45;;;;;;;13.48;12.18;;;9.60;85.90;;;;;;5064758;28;20718;-67
2022/06/02 04:16:44;;;;;;;13.30;12.10;;;9.60;85.70;;;;;;5065469;28;20433;-68
2022/06/02 04:22:28;;;;;;;13.98;12.68;;;9.60;85.40;;;;;;5065239;28;20431;-67
2022/06/02 04:25:07;;;;;;;14.00;12.80;;;9.60;85.10;;;;;;5069060;28;20431;-68
2022/06/02 04:27:43;;;;;;;13.38;12.27;;;9.50;85.20;;;;;;5068284;28;20417;-68
2022/06/02 04:30:17;;;;;;;13.50;12.20;;;9.50;85.30;;;;;;5078338;28;20436;-67
2022/06/02 04:32:52;;;;;;;13.35;12.23;;;9.60;86.20;;;;;;5060994;28;20481;-67
2022/06/02 04:35:32;;;;;;;14.05;12.80;;;9.60;86.30;;;;;;5061511;28;20427;-68
2022/06/02 04:38:09;;;;;;;14.70;13.30;;;9.60;86.00;;;;;;5057853;28;20453;-68
2022/06/02 04:40:44;;;;;;;13.70;12.60;;;9.70;85.80;;;;;;5061385;28;20448;-68
2022/06/02 04:43:21;;;;;;;14.15;12.85;;;9.80;85.30;;;;;;5078302;28;20487;-67
2022/06/02 04:45:59;;;;;;;14.20;13.00;;;9.80;84.40;;;;;;5064092;28;20519;-67
2022/06/02 04:48:32;;;;;;;13.73;12.43;;;9.90;84.50;;;;;;5082321;28;20466;-67
2022/06/02 04:51:10;;;;;;;15.13;13.73;;;9.90;83.90;;;;;;5068847;28;20447;-66
2022/06/02 04:53:46;;;;;;;14.88;13.48;;;9.90;84.00;;;;;;5055707;28;20474;-67
2022/06/02 04:56:20;;;;;;;15.90;14.40;;;9.80;84.10;;;;;;5069381;28;20912;-67
2022/06/02 04:58:56;;;;;;;16.20;14.80;;;9.80;84.10;;;;;;5058162;28;20595;-68
2022/06/02 05:01:34;;;;;;;17.00;15.60;;;9.70;84.40;;;;;;5067016;28;20527;-68
2022/06/02 05:04:11;;;;;;;15.70;14.30;;;9.70;85.20;;;;;;5066124;28;20433;-68
2022/06/02 05:06:46;;;;;;;17.13;15.63;;;9.80;85.50;;;;;;5062394;28;20447;-67
2022/06/02 05:09:19;;;;;;;16.73;15.10;;;9.90;84.90;;;;;;5053179;28;20437;-68
2022/06/02 05:12:01;;;;;;;16.98;15.30;;;9.90;84.80;;;;;;5064219;28;20485;-67
2022/06/02 05:14:34;;;;;;;16.67;15.07;;;10.00;84.90;;;;;;5072431;28;20513;-68
2022/06/02 05:17:17;;;;;;;17.00;15.60;;;10.10;85.20;;;;;;5086136;28;20409;-68
2022/06/02 05:20:12;;;;;;;16.60;15.20;;;10.20;84.70;;;;;;5080354;28;20526;-66
2022/06/02 05:22:55;;;;;;;17.17;15.67;;;10.20;83.90;;;;;;5056380;28;20433;-68
2022/06/02 05:25:54;;;;;;;16.80;15.20;;;10.20;84.00;;;;;;5060784;28;20897;-68
2022/06/02 05:28:59;;;;;;;16.20;14.80;;;10.30;83.90;;;;;;5068607;28;20525;-68
2022/06/02 05:31:57;;;;;;;15.60;14.30;;;10.40;83.30;;;;;;5085729;28;20412;-66
2022/06/02 05:34:44;;;;;;;16.05;14.55;;;10.50;83.50;;;;;;5059563;28;20534;-66
2022/06/02 05:37:44;;;;;;;16.10;14.50;;;10.60;83.10;;;;;;5059303;28;20415;-66
2022/06/02 05:40:18;;;;;;;16.73;15.13;;;10.60;83.10;;;;;;5064420;28;20523;-66
2022/06/02 05:42:59;;;;;;;16.80;15.20;;;10.70;83.40;;;;;;5065070;28;20423;-67
2022/06/02 05:45:48;;;;;;;17.20;15.75;;;10.80;83.50;;;;;;5064759;28;20514;-67
2022/06/02 05:48:32;;;;;;;19.10;17.30;;;10.90;83.50;;;;;;5057786;28;20922;-67
2022/06/02 05:51:06;;;;;;;18.33;16.63;;;11.00;83.40;;;;;;5060941;28;20769;-68
2022/06/02 05:53:51;;;;;;;18.10;16.50;;;11.00;83.10;;;;;;5084338;28;20921;-67
2022/06/02 05:56:27;;;;;;;18.33;16.30;;;11.10;83.20;;;;;;5057448;28;20482;-67
2022/06/02 05:59:13;;;;;;;17.43;15.97;;;11.20;83.30;;;;;;5061606;28;20606;-67
2022/06/02 06:01:54;;;;;;;17.38;15.85;;;11.20;83.10;;;;;;5054489;28;20902;-66
2022/06/02 06:04:53;;;;;;;17.48;15.88;;;11.30;83.00;;;;;;5061824;28;20439;-67
2022/06/02 06:07:30;;;;;;;17.20;15.50;;;11.40;82.60;;;;;;5051896;28;20441;-67
2022/06/02 06:10:05;;;;;;;17.05;15.45;;;11.50;81.90;;;;;;5055912;28;20419;-67
2022/06/02 06:12:55;;;;;;;17.77;16.08;;;11.60;81.70;;;;;;5062325;28;20522;-67
2022/06/02 06:15:35;;;;;;;17.40;15.80;;;11.80;80.70;;;;;;5056301;28;21067;-67
2022/06/02 06:18:09;;;;;;;17.05;15.55;;;11.80;80.60;;;;;;5054236;28;20434;-66
2022/06/02 06:20:50;;;;;;;19.63;17.73;;;11.90;80.10;;;;;;5064583;28;20414;-67
2022/06/02 06:23:35;;;;;;;18.25;16.60;;;12.00;79.10;;;;;;5084581;28;20429;-66
2022/06/02 06:26:15;;;;;;;18.60;16.80;;;12.10;78.90;;;;;;5054190;28;21118;-66
2022/06/02 06:28:52;;;;;;;18.00;16.60;;;12.10;79.10;;;;;;5062968;28;20488;-67
2022/06/02 06:31:29;;;;;;;19.10;17.48;;;12.20;78.60;;;;;;5062936;28;20415;-66
2022/06/02 06:34:12;;;;;;;18.10;16.48;;;12.30;78.80;;;;;;5051603;28;20437;-67
2022/06/02 06:37:00;;;;;;;18.95;17.15;;;12.40;78.10;;;;;;5062053;28;20450;-66
2022/06/02 06:39:39;;;;;;;18.25;16.85;;;12.50;77.00;;;;;;5063167;28;20505;-66
2022/06/02 06:42:29;;;;;;;18.20;16.80;;;12.60;76.80;;;;;;5058307;28;20528;-66
2022/06/02 06:45:04;;;;;;;17.97;16.40;;;12.70;75.70;;;;;;5064368;28;20431;-66
2022/06/02 06:47:39;;;;;;;19.25;17.35;;;12.80;75.40;;;;;;5055214;28;20894;-66
2022/06/02 06:50:13;;;;;;;18.10;16.30;;;12.90;75.00;;;;;;5051255;28;20423;-66
2022/06/02 06:52:52;;;;;;;18.25;16.65;;;13.00;74.90;;;;;;5064193;28;20480;-66
2022/06/02 06:55:31;;;;;;;18.70;17.00;;;13.10;74.50;;;;;;5059015;28;20480;-67
2022/06/02 06:58:08;;;;;;;19.60;18.00;;;13.30;74.50;;;;;;5062110;28;20766;-67
2022/06/02 07:00:40;;;;;;;19.50;17.80;;;13.50;72.70;;;;;;5057966;28;20435;-66
2022/06/02 07:03:17;;;;;;;20.95;19.20;;;13.60;73.20;;;;;;5057137;28;20427;-66
2022/06/02 07:05:49;;;;;;;20.90;18.90;;;13.70;71.00;;;;;;5068981;28;20514;-66
2022/06/02 07:08:29;;;;;;;20.20;18.50;;;13.80;71.20;;;;;;5059050;28;20418;-67
2022/06/02 07:11:02;;;;;;;21.90;19.80;;;14.00;70.10;;;;;;5064091;28;20499;-68
2022/06/02 07:13:35;;;;;;;20.75;18.95;;;14.20;69.30;;;;;;5058879;28;20432;-67
2022/06/02 07:16:09;;;;;;;20.27;18.48;;;14.30;68.50;;;;;;5057793;28;20499;-67
2022/06/02 07:18:46;;;;;;;20.02;18.20;;;14.40;68.40;;;;;;5061090;28;20469;-67
2022/06/02 07:21:26;;;;;;;19.67;17.80;;;14.50;68.50;;;;;;5074318;28;20645;-67
2022/06/02 07:24:06;;;;;;;19.55;17.75;;;14.50;68.50;;;;;;5078403;28;20978;-68
2022/06/02 07:26:47;;;;;;;19.63;17.92;;;14.70;68.50;;;;;;5058025;28;20426;-67
2022/06/02 07:29:25;;;;;;;19.20;17.67;;;14.80;67.60;;;;;;5056860;28;20473;-66
2022/06/02 07:32:08;;;;;;;19.87;18.07;;;15.00;67.10;;;;;;5057353;28;20510;-66
2022/06/02 07:34:48;;;;;;;20.65;18.95;;;15.10;66.40;;;;;;5052392;28;20440;-67
2022/06/02 07:37:29;;;;;;;18.55;16.95;;;15.40;65.40;;;;;;5058439;28;20465;-66
2022/06/02 07:40:16;;;;;;;18.35;16.85;;;15.80;65.10;;;;;;5054401;28;20885;-65
2022/06/02 07:43:05;;;;;;;18.40;16.60;;;16.10;64.20;;;;;;5063414;28;20458;-68
2022/06/02 07:45:36;;;;;;;17.92;16.42;;;16.50;62.20;;;;;;5060638;28;20804;-68
2022/06/02 07:48:27;;;;;;;19.67;18.10;;;16.70;60.30;;;;;;5064051;28;20503;-68
2022/06/02 07:51:00;;;;;;;19.17;17.67;;;16.80;59.50;;;;;;5058794;28;20461;-68
2022/06/02 07:53:46;;;;;;;19.90;18.30;;;16.70;58.40;;;;;;5083584;28;20447;-68
2022/06/02 07:56:30;;;;;;;19.20;17.60;;;16.50;59.30;;;;;;5062514;28;20893;-68
2022/06/02 07:59:06;;;;;;;20.30;18.65;;;16.30;58.50;;;;;;5055798;28;20585;-68
2022/06/02 08:01:59;;;;;;;21.45;19.65;;;16.10;60.50;;;;;;5058989;28;20932;-68
2022/06/02 08:04:33;;;;;;;20.55;18.75;;;16.00;61.40;;;;;;5063466;28;20928;-68
2022/06/02 08:07:06;;;;;;;21.08;19.17;;;15.90;61.30;;;;;;5063982;28;20419;-68
2022/06/02 08:09:52;;;;;;;20.10;18.30;;;16.00;61.90;;;;;;5062626;28;20704;-68
2022/06/02 08:12:31;;;;;;;20.33;18.63;;;16.20;60.80;;;;;;5061065;28;20496;-68
2022/06/02 08:15:14;;;;;;;18.25;16.75;;;16.50;58.60;;;;;;5059382;28;20693;-68
2022/06/02 08:17:48;;;;;;;19.00;17.30;;;16.70;58.60;;;;;;5065722;28;20472;-68
2022/06/02 08:20:32;;;;;;;17.45;15.95;;;16.90;58.20;;;;;;5064522;28;20441;-68
2022/06/02 08:23:16;;;;;;;16.60;15.10;;;17.20;57.70;;;;;;5057209;28;20435;-68
2022/06/02 08:25:50;;;;;;;15.80;14.40;;;17.70;56.80;;;;;;5061399;28;20442;-68
2022/06/02 08:28:37;;;;;;;16.05;14.65;;;18.20;54.70;;;;;;5073093;28;20435;-67
2022/06/02 08:31:14;;;;;;;15.25;14.05;;;18.40;53.70;;;;;;5061466;28;20433;-66
2022/06/02 08:33:51;;;;;;;17.77;15.15;;;18.10;52.70;;;;;;5073103;28;20428;-69
2022/06/02 08:36:27;;;;;;;16.73;15.00;;;17.80;53.10;;;;;;5064160;28;20522;-67
2022/06/02 08:39:26;;;;;;;16.20;14.52;;;17.40;54.50;;;;;;5062677;28;20811;-67
2022/06/02 08:42:12;;;;;;;16.80;15.30;;;17.20;55.20;;;;;;5066612;28;20469;-67
2022/06/02 08:45:15;;;;;;;16.07;14.67;;;17.20;54.50;;;;;;5060087;28;20501;-67
2022/06/02 08:48:31;;;;;;;16.25;14.77;;;17.40;54.80;;;;;;5077468;28;20845;-66
2022/06/02 08:51:44;;;;;;;16.10;14.80;;;18.00;53.60;;;;;;5098051;23;20439;-69
2022/06/02 08:54:38;;;;;;;13.07;12.02;;;18.50;51.90;;;;;;5060889;28;20425;-69
2022/06/02 08:57:28;;;;;;;11.00;10.10;;;19.10;49.40;;;;;;5103623;28;20500;-70
2022/06/02 09:00:45;;;;;;;9.02;8.32;;;19.70;48.50;;;;;;5104372;28;20416;-69
2022/06/02 09:03:50;;;;;;;9.23;8.50;;;20.20;45.30;;;;;;5079809;28;20422;-69
2022/06/02 09:06:51;;;;;;;9.07;8.27;;;20.40;44.30;;;;;;5090121;28;20484;-69
2022/06/02 09:09:50;;;;;;;9.98;9.07;;;20.30;44.30;;;;;;5089065;28;20437;-70
2022/06/02 09:13:02;;;;;;;9.50;8.80;;;20.30;44.90;;;;;;5088258;28;20467;-68
2022/06/02 09:15:58;;;;;;;9.30;8.60;;;20.40;43.20;;;;;;5009100;28;20882;-68
2022/06/02 09:19:06;;;;;;;9.47;8.60;;;20.60;43.00;;;;;;4996006;28;20434;-68
2022/06/02 09:21:55;;;;;;;8.60;7.90;;;21.00;42.30;;;;;;5016607;28;20467;-69
2022/06/02 09:24:28;;;;;;;7.97;7.38;;;21.20;42.60;;;;;;5090524;28;20495;-69
2022/06/02 09:27:03;;;;;;;8.23;7.43;;;21.50;41.90;;;;;;5089105;28;20434;-69
2022/06/02 09:29:39;;;;;;;8.73;8.00;;;21.70;41.50;;;;;;5089257;28;20487;-70
2022/06/02 09:32:23;;;;;;;8.00;7.40;;;21.70;41.50;;;;;;5091613;28;20429;-69
2022/06/02 09:35:01;;;;;;;8.70;7.90;;;21.40;41.50;;;;;;5097334;28;20886;-70
2022/06/02 09:37:56;;;;;;;8.23;7.53;;;21.30;41.20;;;;;;5102634;28;20425;-69
2022/06/02 09:40:47;;;;;;;7.20;6.70;;;21.40;42.00;;;;;;5106613;28;20413;-68
2022/06/02 09:43:31;;;;;;;7.77;7.13;;;21.30;40.20;;;;;;5091511;28;20493;-69
2022/06/02 09:46:17;;;;;;;8.18;7.43;;;21.10;40.90;;;;;;5091432;28;20426;-69
2022/06/02 09:49:02;;;;;;;8.45;7.85;;;21.10;41.00;;;;;;5093905;28;20439;-69
2022/06/02 09:51:47;;;;;;;7.38;6.78;;;21.10;40.40;;;;;;5087649;28;20430;-68
2022/06/02 09:54:45;;;;;;;7.28;6.57;;;21.30;40.80;;;;;;5084686;28;20421;-69
2022/06/02 09:57:57;;;;;;;7.47;5.93;;;21.80;38.90;;;;;;5081981;28;20473;-70
2022/06/02 10:00:43;;;;;;;6.43;5.00;;;22.20;38.70;;;;;;5084424;28;20502;-69
2022/06/02 10:03:29;;;;;;;6.57;5.97;;;22.50;36.20;;;;;;5078235;28;20445;-69
2022/06/02 10:06:13;;;;;;;4.85;4.30;;;22.60;36.40;;;;;;5081883;28;20434;-70
2022/06/02 10:08:54;;;;;;;3.65;3.20;;;23.00;36.50;;;;;;5086160;28;20487;-70
2022/06/02 10:11:30;;;;;;;5.60;3.60;;;23.30;34.50;;;;;;5090366;28;20440;-69
2022/06/02 10:14:25;;;;;;;4.22;3.83;;;23.30;34.30;;;;;;5088949;28;20438;-69
2022/06/02 10:17:26;;;;;;;3.60;3.30;;;23.40;33.50;;;;;;5082755;28;20430;-69
2022/06/02 10:20:24;;;;;;;4.50;3.10;;;23.30;32.80;;;;;;5088000;28;20425;-69
2022/06/02 10:23:00;;;;;;;4.20;3.33;;;23.40;34.20;;;;;;5085154;28;20986;-68
2022/06/02 10:25:56;;;;;;;3.92;3.63;;;23.70;34.30;;;;;;5103330;28;20418;-69
2022/06/02 10:29:11;;;;;;;4.50;4.10;;;23.70;32.60;;;;;;5108835;28;20445;-69
2022/06/02 10:32:00;;;;;;;3.63;3.33;;;23.60;33.20;;;;;;5026788;28;20440;-68
2022/06/02 10:35:08;;;;;;;3.78;3.13;;;23.90;33.10;;;;;;5111243;28;20421;-69
2022/06/02 10:38:05;;;;;;;3.67;3.38;;;24.20;32.80;;;;;;5111020;28;20422;-68
2022/06/02 10:40:56;;;;;;;3.92;3.53;;;24.40;32.90;;;;;;5102602;28;20770;-69
2022/06/02 10:43:56;;;;;;;4.07;3.67;;;24.50;31.80;;;;;;5091462;28;20444;-70
2022/06/02 10:47:02;;;;;;;4.38;4.07;;;24.40;31.10;;;;;;5090294;28;20487;-69
2022/06/02 10:49:38;;;;;;;4.18;3.88;;;24.10;31.50;;;;;;5087834;28;20449;-69
2022/06/02 10:52:54;;;;;;;4.30;3.70;;;23.60;31.50;;;;;;5085665;28;20504;-69
2022/06/02 10:56:01;;;;;;;6.15;4.20;;;23.50;33.70;;;;;;5090397;28;20410;-69
2022/06/02 10:59:00;;;;;;;4.18;3.80;;;23.70;33.10;;;;;;5089358;28;20440;-70
2022/06/02 11:01:59;;;;;;;3.80;3.50;;;23.60;30.80;;;;;;5082772;28;20527;-69
2022/06/02 11:05:01;;;;;;;3.65;3.30;;;23.10;32.00;;;;;;5079760;28;20475;-70
2022/06/02 11:08:05;;;;;;;7.83;3.50;;;22.90;33.60;;;;;;5090428;28;20406;-69
2022/06/02 11:10:49;;;;;;;5.00;4.00;;;23.20;34.70;;;;;;5090808;28;20425;-68
2022/06/02 11:13:52;;;;;;;3.50;3.20;;;23.60;34.30;;;;;;5090925;28;20402;-68
2022/06/02 11:16:56;;;;;;;5.78;3.70;;;23.90;33.60;;;;;;5082511;28;20439;-70
2022/06/02 11:20:09;;;;;;;3.30;3.10;;;24.30;32.70;;;;;;5076626;28;20417;-70
2022/06/02 11:23:32;;;;;;;3.10;2.90;;;24.50;31.20;;;;;;5080678;28;20429;-67
2022/06/02 11:26:31;;;;;;;3.05;2.85;;;24.70;31.30;;;;;;4994642;28;20416;-68
2022/06/02 11:29:30;;;;;;;3.33;3.10;;;25.00;31.30;;;;;;5002122;28;20958;-68
2022/06/02 11:32:19;;;;;;;3.75;3.45;;;25.20;29.90;;;;;;5082444;28;20411;-68
2022/06/02 11:35:18;;;;;;;2.90;2.70;;;25.30;29.10;;;;;;5079388;28;20426;-69
2022/06/02 11:38:17;;;;;;;3.00;2.80;;;25.20;30.40;;;;;;5080144;28;20476;-69
2022/06/02 11:41:11;;;;;;;2.88;2.67;;;25.10;28.90;;;;;;5077981;28;20417;-69
2022/06/02 11:43:51;;;;;;;2.97;2.60;;;24.80;29.90;;;;;;5080489;28;20512;-69
2022/06/02 11:46:55;;;;;;;3.20;2.70;;;25.00;30.70;;;;;;5092294;28;20425;-69
2022/06/02 11:50:10;;;;;;;3.10;2.80;;;25.40;29.40;;;;;;5083855;28;20816;-67
2022/06/02 11:53:37;;;;;;;3.97;3.00;;;25.30;29.30;;;;;;5085216;28;20437;-69
2022/06/02 11:56:12;;;;;;;3.15;2.85;;;25.30;28.90;;;;;;5080817;28;20424;-69
2022/06/02 11:59:19;;;;;;;3.20;2.90;;;25.40;29.50;;;;;;5092108;28;20451;-68
2022/06/02 12:02:04;;;;;;;3.75;3.35;;;25.80;30.00;;;;;;5081647;28;20409;-67
2022/06/02 12:05:05;;;;;;;3.10;2.90;;;25.90;29.50;;;;;;5087517;28;20483;-69
2022/06/02 12:08:06;;;;;;;3.20;2.90;;;25.80;30.00;;;;;;5092592;28;20422;-70
2022/06/02 12:10:57;;;;;;;2.47;2.28;;;25.60;29.70;;;;;;5090433;28;20438;-70
2022/06/02 12:13:44;;;;;;;2.45;2.25;;;25.40;29.60;;;;;;5087886;28;20876;-70
2022/06/02 12:16:45;;;;;;;2.15;2.05;;;25.20;29.60;;;;;;5084945;28;20432;-70
2022/06/02 12:19:38;;;;;;;4.03;2.72;;;24.90;30.00;;;;;;5088197;28;20433;-70
2022/06/02 12:22:17;;;;;;;3.05;2.78;;;24.80;31.10;;;;;;5087901;28;20822;-69
2022/06/02 12:25:22;;;;;;;2.43;2.20;;;24.90;29.90;;;;;;5093002;28;20881;-68
2022/06/02 12:28:25;;;;;;;3.67;3.05;;;24.80;31.60;;;;;;5098658;28;20451;-68
2022/06/02 12:31:15;;;;;;;3.50;2.55;;;24.80;30.00;;;;;;5085109;28;20719;-69
2022/06/02 12:34:04;;;;;;;4.70;3.58;;;24.50;31.00;;;;;;5092938;28;20424;-70
2022/06/02 12:36:43;;;;;;;4.35;3.15;;;24.30;31.70;;;;;;5081193;28;20880;-68
2022/06/02 12:39:55;;;;;;;2.85;2.20;;;24.60;31.60;;;;;;5090631;28;20438;-69
2022/06/02 12:42:55;;;;;;;4.07;2.40;;;25.10;30.40;;;;;;5007098;28;20435;-68
2022/06/02 12:45:45;;;;;;;2.20;2.00;;;25.40;29.70;;;;;;5081008;28;20431;-70
2022/06/02 12:48:44;;;;;;;3.10;2.17;;;25.60;29.20;;;;;;5085919;28;20412;-70
2022/06/02 12:51:27;;;;;;;2.53;2.00;;;25.80;28.60;;;;;;5085321;28;20930;-69
2022/06/02 12:54:23;;;;;;;4.30;1.90;;;25.90;28.40;;;;;;5088391;28;20976;-70
2022/06/02 12:57:30;;;;;;;3.25;2.10;;;26.00;28.50;;;;;;5091143;28;20884;-70
2022/06/02 13:00:25;;;;;;;3.55;2.00;;;26.00;27.50;;;;;;5088976;28;20482;-68
2022/06/02 13:03:23;;;;;;;1.90;1.80;;;26.10;28.70;;;;;;5090788;28;20430;-69
2022/06/02 13:06:09;;;;;;;5.40;2.42;;;26.10;29.20;;;;;;5067331;28;20418;-70
2022/06/02 13:09:05;;;;;;;5.70;2.30;;;26.10;28.70;;;;;;5086176;28;20894;-70
2022/06/02 13:12:01;;;;;;;2.20;2.00;;;26.10;28.00;;;;;;5092042;28;20495;-69
2022/06/02 13:15:22;;;;;;;2.20;1.77;;;26.10;28.40;;;;;;5092587;28;20459;-70
2022/06/02 13:18:21;;;;;;;2.40;1.60;;;26.20;28.90;;;;;;5087790;28;20430;-68
2022/06/02 13:21:24;;;;;;;1.60;1.50;;;26.50;29.80;;;;;;5086853;28;20426;-69
2022/06/02 13:24:14;;;;;;;1.85;1.38;;;26.90;28.10;;;;;;5086733;28;20430;-70
2022/06/02 13:27:13;;;;;;;1.70;1.60;;;27.30;27.90;;;;;;5088251;28;20410;-69
2022/06/02 13:30:03;;;;;;;2.03;1.60;;;27.40;27.90;;;;;;5077627;28;20475;-70
2022/06/02 13:32:56;;;;;;;1.83;1.38;;;27.40;27.90;;;;;;5089313;28;20981;-70
2022/06/02 13:35:59;;;;;;;2.38;1.70;;;27.40;28.00;;;;;;5079032;28;20466;-70
2022/06/02 13:39:01;;;;;;;2.85;1.50;;;27.30;28.10;;;;;;5088323;28;20426;-69
2022/06/02 13:42:02;;;;;;;1.80;1.50;;;27.40;27.50;;;;;;5066358;28;20605;-68
2022/06/02 13:45:18;;;;;;;1.90;1.65;;;27.40;27.30;;;;;;5021219;28;20430;-70
2022/06/02 13:48:15;;;;;;;2.95;1.88;;;27.20;26.40;;;;;;5005974;28;20428;-70
2022/06/02 13:51:14;;;;;;;3.72;1.52;;;27.10;28.00;;;;;;5090287;28;20876;-71
2022/06/02 13:57:31;;;;;;;3.35;1.70;;;27.20;28.70;;;;;;5084986;28;20804;-70
2022/06/02 14:00:08;;;;;;;2.47;1.70;;;27.30;28.60;;;;;;5091469;28;20409;-70
2022/06/02 14:03:14;;;;;;;2.53;1.53;;;27.50;27.90;;;;;;5079553;28;20435;-70
2022/06/02 14:06:05;;;;;;;2.45;1.20;;;27.60;28.20;;;;;;5087195;28;20810;-70
2022/06/02 14:08:53;;;;;;;1.40;1.30;;;27.60;27.50;;;;;;5089154;28;20436;-70
2022/06/02 14:11:37;;;;;;;1.50;1.33;;;27.70;28.10;;;;;;5090991;28;20494;-69
2022/06/02 14:14:35;;;;;;;1.50;1.40;;;27.60;27.30;;;;;;5091085;28;20424;-70
2022/06/02 14:17:13;;;;;;;2.00;1.50;;;27.40;29.40;;;;;;5088021;28;20435;-71
2022/06/02 14:20:18;;;;;;;1.77;1.60;;;27.70;27.70;;;;;;5102967;28;20409;-70
2022/06/02 14:23:04;;;;;;;1.88;1.52;;;27.80;28.20;;;;;;5112035;28;20390;-70